sensor_id;sensor_type;location;lat;lon;timestamp;P1;durP1;ratioP1;P2;durP2;ratioP2
69951;SDS011;60406;48.408;13.392;2023-04-08T00:04:37;19.08;;;14.27;;
69951;SDS011;60406;48.408;13.392;2023-04-08T00:09:38;17.85;;;13.88;;
69951;SDS011;60406;48.408;13.392;2023-04-08T00:14:39;18.20;;;13.45;;
69951;SDS011;60406;48.408;13.392;2023-04-08T00:19:39;20.45;;;14.68;;
69951;SDS011;60406;48.408;13.392;2023-04-08T00:24:40;17.85;;;13.75;;
69951;SDS011;60406;48.408;13.392;2023-04-08T00:29:41;19.67;;;14.10;;
69951;SDS011;60406;48.408;13.392;2023-04-08T00:34:42;17.90;;;13.98;;
69951;SDS011;60406;48.408;13.392;2023-04-08T00:39:43;17.73;;;13.90;;
69951;SDS011;60406;48.408;13.392;2023-04-08T00:44:44;16.98;;;13.73;;
69951;SDS011;60406;48.408;13.392;2023-04-08T00:49:45;21.98;;;14.23;;
69951;SDS011;60406;48.408;13.392;2023-04-08T00:54:45;18.15;;;14.05;;
69951;SDS011;60406;48.408;13.392;2023-04-08T00:59:46;18.75;;;14.40;;
69951;SDS011;60406;48.408;13.392;2023-04-08T01:05:04;17.08;;;14.38;;
69951;SDS011;60406;48.408;13.392;2023-04-08T01:10:19;22.50;;;15.05;;
69951;SDS011;60406;48.408;13.392;2023-04-08T01:15:22;18.40;;;14.23;;
69951;SDS011;60406;48.408;13.392;2023-04-08T01:20:25;19.00;;;14.18;;
69951;SDS011;60406;48.408;13.392;2023-04-08T01:25:29;16.65;;;13.50;;
69951;SDS011;60406;48.408;13.392;2023-04-08T01:30:31;16.23;;;13.85;;
69951;SDS011;60406;48.408;13.392;2023-04-08T01:35:33;18.30;;;15.10;;
69951;SDS011;60406;48.408;13.392;2023-04-08T01:40:36;17.13;;;13.73;;
69951;SDS011;60406;48.408;13.392;2023-04-08T01:45:37;17.77;;;14.00;;
69951;SDS011;60406;48.408;13.392;2023-04-08T01:50:39;19.75;;;14.75;;
69951;SDS011;60406;48.408;13.392;2023-04-08T01:55:41;19.63;;;15.73;;
69951;SDS011;60406;48.408;13.392;2023-04-08T02:00:42;19.58;;;15.50;;
69951;SDS011;60406;48.408;13.392;2023-04-08T02:05:43;18.42;;;14.80;;
69951;SDS011;60406;48.408;13.392;2023-04-08T02:10:45;18.58;;;15.70;;
69951;SDS011;60406;48.408;13.392;2023-04-08T02:15:47;18.65;;;14.50;;
69951;SDS011;60406;48.408;13.392;2023-04-08T02:26:12;19.50;;;14.82;;
69951;SDS011;60406;48.408;13.392;2023-04-08T02:31:15;22.13;;;15.73;;
69951;SDS011;60406;48.408;13.392;2023-04-08T02:36:16;19.90;;;15.63;;
69951;SDS011;60406;48.408;13.392;2023-04-08T02:41:17;20.63;;;15.43;;
69951;SDS011;60406;48.408;13.392;2023-04-08T02:46:18;21.60;;;15.25;;
69951;SDS011;60406;48.408;13.392;2023-04-08T02:51:19;25.58;;;17.33;;
69951;SDS011;60406;48.408;13.392;2023-04-08T02:56:20;20.45;;;15.65;;
69951;SDS011;60406;48.408;13.392;2023-04-08T03:01:21;22.90;;;16.63;;
69951;SDS011;60406;48.408;13.392;2023-04-08T03:06:22;23.35;;;15.93;;
69951;SDS011;60406;48.408;13.392;2023-04-08T03:11:23;19.05;;;16.50;;
69951;SDS011;60406;48.408;13.392;2023-04-08T03:16:23;21.92;;;16.17;;
69951;SDS011;60406;48.408;13.392;2023-04-08T03:21:24;20.63;;;16.30;;
69951;SDS011;60406;48.408;13.392;2023-04-08T03:26:25;20.38;;;14.43;;
69951;SDS011;60406;48.408;13.392;2023-04-08T03:31:26;18.30;;;15.10;;
69951;SDS011;60406;48.408;13.392;2023-04-08T03:36:27;20.65;;;15.43;;
69951;SDS011;60406;48.408;13.392;2023-04-08T03:41:28;23.75;;;16.17;;
69951;SDS011;60406;48.408;13.392;2023-04-08T03:46:29;22.55;;;16.38;;
69951;SDS011;60406;48.408;13.392;2023-04-08T03:51:30;19.48;;;15.30;;
69951;SDS011;60406;48.408;13.392;2023-04-08T03:56:31;22.00;;;15.88;;
69951;SDS011;60406;48.408;13.392;2023-04-08T04:01:32;19.77;;;14.65;;
69951;SDS011;60406;48.408;13.392;2023-04-08T04:06:32;23.20;;;16.95;;
69951;SDS011;60406;48.408;13.392;2023-04-08T04:11:33;23.98;;;15.75;;
69951;SDS011;60406;48.408;13.392;2023-04-08T04:16:34;22.23;;;16.67;;
69951;SDS011;60406;48.408;13.392;2023-04-08T04:21:35;24.17;;;17.35;;
69951;SDS011;60406;48.408;13.392;2023-04-08T04:26:36;24.85;;;18.17;;
69951;SDS011;60406;48.408;13.392;2023-04-08T04:31:37;29.70;;;21.00;;
69951;SDS011;60406;48.408;13.392;2023-04-08T04:36:38;24.60;;;17.95;;
69951;SDS011;60406;48.408;13.392;2023-04-08T04:41:39;23.40;;;17.58;;
69951;SDS011;60406;48.408;13.392;2023-04-08T04:46:40;26.65;;;19.70;;
69951;SDS011;60406;48.408;13.392;2023-04-08T04:51:41;25.55;;;17.17;;
69951;SDS011;60406;48.408;13.392;2023-04-08T04:56:42;24.35;;;17.98;;
69951;SDS011;60406;48.408;13.392;2023-04-08T05:01:43;28.88;;;19.42;;
69951;SDS011;60406;48.408;13.392;2023-04-08T05:06:44;23.55;;;18.85;;
69951;SDS011;60406;48.408;13.392;2023-04-08T05:11:44;25.08;;;18.48;;
69951;SDS011;60406;48.408;13.392;2023-04-08T05:16:45;22.75;;;18.40;;
69951;SDS011;60406;48.408;13.392;2023-04-08T05:21:46;24.60;;;20.13;;
69951;SDS011;60406;48.408;13.392;2023-04-08T05:26:47;23.80;;;19.08;;
69951;SDS011;60406;48.408;13.392;2023-04-08T05:31:48;22.85;;;19.10;;
69951;SDS011;60406;48.408;13.392;2023-04-08T05:36:49;27.05;;;19.13;;
69951;SDS011;60406;48.408;13.392;2023-04-08T05:41:50;22.23;;;18.30;;
69951;SDS011;60406;48.408;13.392;2023-04-08T05:46:50;25.08;;;18.42;;
69951;SDS011;60406;48.408;13.392;2023-04-08T05:51:51;28.83;;;20.65;;
69951;SDS011;60406;48.408;13.392;2023-04-08T05:56:52;26.77;;;19.90;;
69951;SDS011;60406;48.408;13.392;2023-04-08T06:01:53;26.35;;;19.92;;
69951;SDS011;60406;48.408;13.392;2023-04-08T06:06:54;25.23;;;19.75;;
69951;SDS011;60406;48.408;13.392;2023-04-08T06:11:55;19.10;;;14.43;;
69951;SDS011;60406;48.408;13.392;2023-04-08T06:16:56;21.73;;;15.55;;
69951;SDS011;60406;48.408;13.392;2023-04-08T06:21:57;16.70;;;13.43;;
69951;SDS011;60406;48.408;13.392;2023-04-08T06:26:57;21.60;;;15.20;;
69951;SDS011;60406;48.408;13.392;2023-04-08T06:31:58;25.15;;;17.90;;
69951;SDS011;60406;48.408;13.392;2023-04-08T06:36:59;26.23;;;18.40;;
69951;SDS011;60406;48.408;13.392;2023-04-08T06:42:00;28.20;;;20.02;;
69951;SDS011;60406;48.408;13.392;2023-04-08T06:47:01;32.20;;;22.55;;
69951;SDS011;60406;48.408;13.392;2023-04-08T06:52:02;31.75;;;19.60;;
69951;SDS011;60406;48.408;13.392;2023-04-08T06:57:03;25.35;;;19.33;;
69951;SDS011;60406;48.408;13.392;2023-04-08T07:02:03;29.98;;;21.75;;
69951;SDS011;60406;48.408;13.392;2023-04-08T07:07:04;25.88;;;20.05;;
69951;SDS011;60406;48.408;13.392;2023-04-08T07:12:05;31.60;;;23.52;;
69951;SDS011;60406;48.408;13.392;2023-04-08T07:17:06;33.03;;;23.42;;
69951;SDS011;60406;48.408;13.392;2023-04-08T07:22:07;34.38;;;23.65;;
69951;SDS011;60406;48.408;13.392;2023-04-08T07:27:08;30.45;;;23.02;;
69951;SDS011;60406;48.408;13.392;2023-04-08T07:32:09;35.00;;;22.52;;
69951;SDS011;60406;48.408;13.392;2023-04-08T07:37:09;62.45;;;40.95;;
69951;SDS011;60406;48.408;13.392;2023-04-08T07:42:10;30.63;;;21.90;;
69951;SDS011;60406;48.408;13.392;2023-04-08T07:47:11;30.90;;;21.50;;
69951;SDS011;60406;48.408;13.392;2023-04-08T07:52:12;31.63;;;19.23;;
69951;SDS011;60406;48.408;13.392;2023-04-08T07:57:13;25.42;;;20.58;;
69951;SDS011;60406;48.408;13.392;2023-04-08T08:02:14;29.15;;;20.95;;
69951;SDS011;60406;48.408;13.392;2023-04-08T08:07:15;34.55;;;22.00;;
69951;SDS011;60406;48.408;13.392;2023-04-08T08:12:16;29.60;;;23.50;;
69951;SDS011;60406;48.408;13.392;2023-04-08T08:17:17;28.95;;;21.77;;
69951;SDS011;60406;48.408;13.392;2023-04-08T08:22:17;29.23;;;20.80;;
69951;SDS011;60406;48.408;13.392;2023-04-08T08:27:18;26.30;;;20.67;;
69951;SDS011;60406;48.408;13.392;2023-04-08T08:32:19;32.33;;;24.35;;
69951;SDS011;60406;48.408;13.392;2023-04-08T08:37:20;31.13;;;20.55;;
69951;SDS011;60406;48.408;13.392;2023-04-08T08:42:22;27.17;;;20.50;;
69951;SDS011;60406;48.408;13.392;2023-04-08T08:47:23;27.77;;;22.15;;
69951;SDS011;60406;48.408;13.392;2023-04-08T08:52:24;25.80;;;19.98;;
69951;SDS011;60406;48.408;13.392;2023-04-08T08:57:25;25.80;;;20.73;;
69951;SDS011;60406;48.408;13.392;2023-04-08T09:02:27;22.63;;;19.00;;
69951;SDS011;60406;48.408;13.392;2023-04-08T09:07:29;21.83;;;18.70;;
69951;SDS011;60406;48.408;13.392;2023-04-08T09:12:30;22.60;;;18.60;;
69951;SDS011;60406;48.408;13.392;2023-04-08T09:17:35;26.42;;;18.75;;
69951;SDS011;60406;48.408;13.392;2023-04-08T09:28:01;25.17;;;20.00;;
69951;SDS011;60406;48.408;13.392;2023-04-08T09:33:02;27.75;;;23.23;;
69951;SDS011;60406;48.408;13.392;2023-04-08T09:38:03;30.63;;;24.45;;
69951;SDS011;60406;48.408;13.392;2023-04-08T09:43:04;30.67;;;24.67;;
69951;SDS011;60406;48.408;13.392;2023-04-08T09:48:12;32.30;;;25.15;;
69951;SDS011;60406;48.408;13.392;2023-04-08T09:53:25;29.25;;;23.30;;
69951;SDS011;60406;48.408;13.392;2023-04-08T09:58:36;28.02;;;21.88;;
69951;SDS011;60406;48.408;13.392;2023-04-08T10:03:39;27.20;;;23.13;;
69951;SDS011;60406;48.408;13.392;2023-04-08T10:08:40;33.38;;;26.75;;
69951;SDS011;60406;48.408;13.392;2023-04-08T10:13:41;28.20;;;22.52;;
69951;SDS011;60406;48.408;13.392;2023-04-08T10:18:42;27.40;;;20.95;;
69951;SDS011;60406;48.408;13.392;2023-04-08T10:24:16;30.92;;;23.45;;
69951;SDS011;60406;48.408;13.392;2023-04-08T10:34:17;34.95;;;25.70;;
69951;SDS011;60406;48.408;13.392;2023-04-08T10:39:27;32.00;;;24.60;;
69951;SDS011;60406;48.408;13.392;2023-04-08T10:44:27;30.52;;;25.70;;
69951;SDS011;60406;48.408;13.392;2023-04-08T10:49:32;27.67;;;22.48;;
69951;SDS011;60406;48.408;13.392;2023-04-08T10:54:33;22.73;;;18.20;;
69951;SDS011;60406;48.408;13.392;2023-04-08T10:59:34;19.30;;;16.65;;
69951;SDS011;60406;48.408;13.392;2023-04-08T11:04:40;19.58;;;16.95;;
69951;SDS011;60406;48.408;13.392;2023-04-08T11:09:41;24.95;;;18.88;;
69951;SDS011;60406;48.408;13.392;2023-04-08T11:14:42;24.42;;;20.65;;
69951;SDS011;60406;48.408;13.392;2023-04-08T11:19:43;22.83;;;20.42;;
69951;SDS011;60406;48.408;13.392;2023-04-08T11:24:44;34.67;;;20.83;;
69951;SDS011;60406;48.408;13.392;2023-04-08T11:29:45;21.27;;;18.58;;
69951;SDS011;60406;48.408;13.392;2023-04-08T11:34:46;23.35;;;20.85;;
69951;SDS011;60406;48.408;13.392;2023-04-08T11:39:47;27.55;;;23.10;;
69951;SDS011;60406;48.408;13.392;2023-04-08T11:44:48;26.35;;;23.00;;
69951;SDS011;60406;48.408;13.392;2023-04-08T11:49:49;24.90;;;21.30;;
69951;SDS011;60406;48.408;13.392;2023-04-08T11:54:50;30.15;;;22.88;;
69951;SDS011;60406;48.408;13.392;2023-04-08T11:59:51;26.05;;;22.58;;
69951;SDS011;60406;48.408;13.392;2023-04-08T12:04:51;26.92;;;23.25;;
69951;SDS011;60406;48.408;13.392;2023-04-08T12:09:52;28.27;;;24.15;;
69951;SDS011;60406;48.408;13.392;2023-04-08T12:14:53;26.08;;;22.75;;
69951;SDS011;60406;48.408;13.392;2023-04-08T12:19:54;27.20;;;24.30;;
69951;SDS011;60406;48.408;13.392;2023-04-08T12:24:55;26.02;;;21.67;;
69951;SDS011;60406;48.408;13.392;2023-04-08T12:29:56;24.00;;;21.50;;
69951;SDS011;60406;48.408;13.392;2023-04-08T12:34:57;25.80;;;21.92;;
69951;SDS011;60406;48.408;13.392;2023-04-08T12:39:58;24.23;;;20.73;;
69951;SDS011;60406;48.408;13.392;2023-04-08T12:44:58;25.38;;;21.60;;
69951;SDS011;60406;48.408;13.392;2023-04-08T12:49:59;23.63;;;20.65;;
69951;SDS011;60406;48.408;13.392;2023-04-08T12:55:00;25.65;;;22.95;;
69951;SDS011;60406;48.408;13.392;2023-04-08T13:00:01;24.77;;;19.60;;
69951;SDS011;60406;48.408;13.392;2023-04-08T13:05:02;24.13;;;21.23;;
69951;SDS011;60406;48.408;13.392;2023-04-08T13:10:03;28.55;;;23.30;;
69951;SDS011;60406;48.408;13.392;2023-04-08T13:15:05;23.90;;;19.80;;
69951;SDS011;60406;48.408;13.392;2023-04-08T13:20:06;24.55;;;20.52;;
69951;SDS011;60406;48.408;13.392;2023-04-08T13:25:08;25.80;;;21.00;;
69951;SDS011;60406;48.408;13.392;2023-04-08T13:30:09;29.02;;;20.67;;
69951;SDS011;60406;48.408;13.392;2023-04-08T13:35:10;27.20;;;20.80;;
69951;SDS011;60406;48.408;13.392;2023-04-08T13:40:11;22.60;;;18.50;;
69951;SDS011;60406;48.408;13.392;2023-04-08T13:45:12;22.02;;;19.02;;
69951;SDS011;60406;48.408;13.392;2023-04-08T13:50:13;22.80;;;20.05;;
69951;SDS011;60406;48.408;13.392;2023-04-08T13:55:14;21.58;;;18.05;;
69951;SDS011;60406;48.408;13.392;2023-04-08T14:00:15;25.67;;;20.55;;
69951;SDS011;60406;48.408;13.392;2023-04-08T14:05:16;25.63;;;21.73;;
69951;SDS011;60406;48.408;13.392;2023-04-08T14:10:17;25.95;;;21.80;;
69951;SDS011;60406;48.408;13.392;2023-04-08T14:15:18;28.52;;;20.85;;
69951;SDS011;60406;48.408;13.392;2023-04-08T14:20:18;25.85;;;21.45;;
69951;SDS011;60406;48.408;13.392;2023-04-08T14:25:19;27.77;;;22.52;;
69951;SDS011;60406;48.408;13.392;2023-04-08T14:30:20;25.02;;;21.70;;
69951;SDS011;60406;48.408;13.392;2023-04-08T14:35:21;25.55;;;21.98;;
69951;SDS011;60406;48.408;13.392;2023-04-08T14:40:22;28.30;;;22.88;;
69951;SDS011;60406;48.408;13.392;2023-04-08T14:45:23;26.35;;;21.83;;
69951;SDS011;60406;48.408;13.392;2023-04-08T14:50:24;28.02;;;23.60;;
69951;SDS011;60406;48.408;13.392;2023-04-08T14:55:24;26.38;;;21.15;;
69951;SDS011;60406;48.408;13.392;2023-04-08T15:00:25;27.27;;;22.17;;
69951;SDS011;60406;48.408;13.392;2023-04-08T15:05:26;35.10;;;25.92;;
69951;SDS011;60406;48.408;13.392;2023-04-08T15:10:27;25.13;;;20.88;;
69951;SDS011;60406;48.408;13.392;2023-04-08T15:15:28;25.05;;;18.65;;
69951;SDS011;60406;48.408;13.392;2023-04-08T15:20:29;23.30;;;17.88;;
69951;SDS011;60406;48.408;13.392;2023-04-08T15:25:30;25.20;;;17.73;;
69951;SDS011;60406;48.408;13.392;2023-04-08T15:30:31;21.02;;;18.05;;
69951;SDS011;60406;48.408;13.392;2023-04-08T15:35:31;20.98;;;18.23;;
69951;SDS011;60406;48.408;13.392;2023-04-08T15:40:33;22.00;;;17.38;;
69951;SDS011;60406;48.408;13.392;2023-04-08T15:45:33;19.08;;;16.98;;
69951;SDS011;60406;48.408;13.392;2023-04-08T15:50:34;23.60;;;18.73;;
69951;SDS011;60406;48.408;13.392;2023-04-08T15:55:39;21.13;;;17.42;;
69951;SDS011;60406;48.408;13.392;2023-04-08T16:00:40;14.50;;;11.77;;
69951;SDS011;60406;48.408;13.392;2023-04-08T16:05:41;11.55;;;9.68;;
69951;SDS011;60406;48.408;13.392;2023-04-08T16:10:41;8.40;;;5.82;;
69951;SDS011;60406;48.408;13.392;2023-04-08T16:15:42;7.50;;;6.22;;
69951;SDS011;60406;48.408;13.392;2023-04-08T16:20:43;6.90;;;6.20;;
69951;SDS011;60406;48.408;13.392;2023-04-08T16:25:44;7.40;;;6.70;;
69951;SDS011;60406;48.408;13.392;2023-04-08T16:30:45;8.27;;;6.72;;
69951;SDS011;60406;48.408;13.392;2023-04-08T16:35:46;10.32;;;8.88;;
69951;SDS011;60406;48.408;13.392;2023-04-08T16:40:47;9.00;;;8.05;;
69951;SDS011;60406;48.408;13.392;2023-04-08T16:45:48;9.93;;;7.50;;
69951;SDS011;60406;48.408;13.392;2023-04-08T16:50:49;9.52;;;8.10;;
69951;SDS011;60406;48.408;13.392;2023-04-08T16:55:49;7.25;;;6.55;;
69951;SDS011;60406;48.408;13.392;2023-04-08T17:00:50;9.18;;;8.27;;
69951;SDS011;60406;48.408;13.392;2023-04-08T17:05:51;11.70;;;9.82;;
69951;SDS011;60406;48.408;13.392;2023-04-08T17:10:52;16.02;;;8.55;;
69951;SDS011;60406;48.408;13.392;2023-04-08T17:15:53;11.50;;;9.13;;
69951;SDS011;60406;48.408;13.392;2023-04-08T17:20:54;11.77;;;9.82;;
69951;SDS011;60406;48.408;13.392;2023-04-08T17:25:55;17.17;;;12.55;;
69951;SDS011;60406;48.408;13.392;2023-04-08T17:30:55;16.48;;;11.52;;
69951;SDS011;60406;48.408;13.392;2023-04-08T17:35:56;13.52;;;10.20;;
69951;SDS011;60406;48.408;13.392;2023-04-08T17:40:57;10.55;;;9.20;;
69951;SDS011;60406;48.408;13.392;2023-04-08T17:45:59;9.88;;;8.90;;
69951;SDS011;60406;48.408;13.392;2023-04-08T17:51:01;11.35;;;9.88;;
69951;SDS011;60406;48.408;13.392;2023-04-08T17:56:05;11.50;;;9.48;;
69951;SDS011;60406;48.408;13.392;2023-04-08T18:01:06;12.48;;;10.70;;
69951;SDS011;60406;48.408;13.392;2023-04-08T18:06:07;12.77;;;10.30;;
69951;SDS011;60406;48.408;13.392;2023-04-08T18:11:08;14.43;;;11.45;;
69951;SDS011;60406;48.408;13.392;2023-04-08T18:16:15;11.75;;;10.50;;
69951;SDS011;60406;48.408;13.392;2023-04-08T18:21:17;12.43;;;10.48;;
69951;SDS011;60406;48.408;13.392;2023-04-08T18:26:18;16.50;;;12.68;;
69951;SDS011;60406;48.408;13.392;2023-04-08T18:31:18;18.90;;;14.13;;
69951;SDS011;60406;48.408;13.392;2023-04-08T18:36:19;15.45;;;13.05;;
69951;SDS011;60406;48.408;13.392;2023-04-08T18:41:20;17.77;;;14.85;;
69951;SDS011;60406;48.408;13.392;2023-04-08T18:46:21;19.60;;;15.65;;
69951;SDS011;60406;48.408;13.392;2023-04-08T18:51:22;31.00;;;19.85;;
69951;SDS011;60406;48.408;13.392;2023-04-08T18:56:23;34.42;;;21.70;;
69951;SDS011;60406;48.408;13.392;2023-04-08T19:01:24;30.13;;;20.20;;
69951;SDS011;60406;48.408;13.392;2023-04-08T19:06:25;28.58;;;20.58;;
69951;SDS011;60406;48.408;13.392;2023-04-08T19:11:26;20.00;;;17.42;;
69951;SDS011;60406;48.408;13.392;2023-04-08T19:16:27;24.20;;;17.50;;
69951;SDS011;60406;48.408;13.392;2023-04-08T19:21:28;25.13;;;19.10;;
69951;SDS011;60406;48.408;13.392;2023-04-08T19:26:29;26.92;;;21.38;;
69951;SDS011;60406;48.408;13.392;2023-04-08T19:31:30;28.08;;;20.13;;
69951;SDS011;60406;48.408;13.392;2023-04-08T19:36:31;31.52;;;22.83;;
69951;SDS011;60406;48.408;13.392;2023-04-08T19:41:32;32.38;;;23.33;;
69951;SDS011;60406;48.408;13.392;2023-04-08T19:46:33;45.50;;;29.38;;
69951;SDS011;60406;48.408;13.392;2023-04-08T19:51:34;32.95;;;23.83;;
69951;SDS011;60406;48.408;13.392;2023-04-08T19:56:35;26.40;;;20.83;;
69951;SDS011;60406;48.408;13.392;2023-04-08T20:01:35;28.30;;;22.48;;
69951;SDS011;60406;48.408;13.392;2023-04-08T20:06:36;25.83;;;20.58;;
69951;SDS011;60406;48.408;13.392;2023-04-08T20:11:37;31.15;;;22.42;;
69951;SDS011;60406;48.408;13.392;2023-04-08T20:16:38;27.98;;;20.65;;
69951;SDS011;60406;48.408;13.392;2023-04-08T20:21:39;32.80;;;23.73;;
69951;SDS011;60406;48.408;13.392;2023-04-08T20:26:40;31.20;;;22.70;;
69951;SDS011;60406;48.408;13.392;2023-04-08T20:31:41;28.65;;;21.08;;
69951;SDS011;60406;48.408;13.392;2023-04-08T20:36:42;26.95;;;21.33;;
69951;SDS011;60406;48.408;13.392;2023-04-08T20:41:43;26.17;;;19.55;;
69951;SDS011;60406;48.408;13.392;2023-04-08T20:46:44;26.02;;;20.02;;
69951;SDS011;60406;48.408;13.392;2023-04-08T20:51:45;28.10;;;19.75;;
69951;SDS011;60406;48.408;13.392;2023-04-08T20:56:46;25.40;;;20.17;;
69951;SDS011;60406;48.408;13.392;2023-04-08T21:01:47;29.52;;;20.92;;
69951;SDS011;60406;48.408;13.392;2023-04-08T21:06:47;27.25;;;20.65;;
69951;SDS011;60406;48.408;13.392;2023-04-08T21:11:48;30.60;;;21.65;;
69951;SDS011;60406;48.408;13.392;2023-04-08T21:16:49;29.33;;;21.40;;
69951;SDS011;60406;48.408;13.392;2023-04-08T21:21:50;28.27;;;20.70;;
69951;SDS011;60406;48.408;13.392;2023-04-08T21:26:51;25.58;;;20.48;;
69951;SDS011;60406;48.408;13.392;2023-04-08T21:31:52;26.15;;;20.60;;
69951;SDS011;60406;48.408;13.392;2023-04-08T21:36:53;25.48;;;18.17;;
69951;SDS011;60406;48.408;13.392;2023-04-08T21:41:54;25.05;;;19.30;;
69951;SDS011;60406;48.408;13.392;2023-04-08T21:46:55;26.00;;;18.70;;
69951;SDS011;60406;48.408;13.392;2023-04-08T21:51:56;30.30;;;21.27;;
69951;SDS011;60406;48.408;13.392;2023-04-08T21:56:58;27.20;;;19.90;;
69951;SDS011;60406;48.408;13.392;2023-04-08T22:01:58;28.48;;;19.88;;
69951;SDS011;60406;48.408;13.392;2023-04-08T22:06:59;29.83;;;21.23;;
69951;SDS011;60406;48.408;13.392;2023-04-08T22:12:00;29.80;;;21.90;;
69951;SDS011;60406;48.408;13.392;2023-04-08T22:17:01;30.25;;;20.70;;
69951;SDS011;60406;48.408;13.392;2023-04-08T22:22:02;30.10;;;21.95;;
69951;SDS011;60406;48.408;13.392;2023-04-08T22:27:03;25.95;;;19.40;;
69951;SDS011;60406;48.408;13.392;2023-04-08T22:32:04;27.20;;;20.67;;
69951;SDS011;60406;48.408;13.392;2023-04-08T22:37:05;30.02;;;21.08;;
69951;SDS011;60406;48.408;13.392;2023-04-08T22:42:06;32.88;;;21.65;;
69951;SDS011;60406;48.408;13.392;2023-04-08T22:47:06;27.63;;;21.25;;
69951;SDS011;60406;48.408;13.392;2023-04-08T22:52:07;28.98;;;22.23;;
69951;SDS011;60406;48.408;13.392;2023-04-08T22:57:08;29.60;;;22.45;;
69951;SDS011;60406;48.408;13.392;2023-04-08T23:02:09;27.33;;;21.08;;
69951;SDS011;60406;48.408;13.392;2023-04-08T23:07:10;28.80;;;21.13;;
69951;SDS011;60406;48.408;13.392;2023-04-08T23:12:11;27.35;;;20.85;;
69951;SDS011;60406;48.408;13.392;2023-04-08T23:17:12;29.50;;;21.27;;
69951;SDS011;60406;48.408;13.392;2023-04-08T23:22:13;33.53;;;23.60;;
69951;SDS011;60406;48.408;13.392;2023-04-08T23:27:13;29.58;;;22.45;;
69951;SDS011;60406;48.408;13.392;2023-04-08T23:32:14;32.40;;;23.77;;
69951;SDS011;60406;48.408;13.392;2023-04-08T23:37:15;29.40;;;21.60;;
69951;SDS011;60406;48.408;13.392;2023-04-08T23:42:16;28.42;;;21.63;;
69951;SDS011;60406;48.408;13.392;2023-04-08T23:47:17;27.73;;;21.73;;
69951;SDS011;60406;48.408;13.392;2023-04-08T23:52:18;28.92;;;21.15;;
69951;SDS011;60406;48.408;13.392;2023-04-08T23:57:19;28.35;;;22.58;;
